sensor_id;sensor_type;location;lat;lon;timestamp;pressure;altitude;pressure_sealevel;temperature;humidity
59043;BME280;44826;51.596;5.624;2022-08-19T00:00:08;101226.34;;;18.30;77.21
59043;BME280;44826;51.596;5.624;2022-08-19T00:02:34;101222.94;;;18.28;76.88
59043;BME280;44826;51.596;5.624;2022-08-19T00:05:00;101218.63;;;18.27;76.89
59043;BME280;44826;51.596;5.624;2022-08-19T00:07:26;101224.03;;;18.24;77.24
59043;BME280;44826;51.596;5.624;2022-08-19T00:09:51;101221.47;;;18.23;77.25
59043;BME280;44826;51.596;5.624;2022-08-19T00:12:17;101219.78;;;18.22;77.43
59043;BME280;44826;51.596;5.624;2022-08-19T00:14:42;101223.34;;;18.20;77.36
59043;BME280;44826;51.596;5.624;2022-08-19T00:17:08;101215.78;;;18.14;76.62
59043;BME280;44826;51.596;5.624;2022-08-19T00:19:34;101227.28;;;18.12;77.77
59043;BME280;44826;51.596;5.624;2022-08-19T00:22:00;101222.13;;;18.10;77.80
59043;BME280;44826;51.596;5.624;2022-08-19T00:24:25;101223.13;;;18.08;78.02
59043;BME280;44826;51.596;5.624;2022-08-19T00:26:52;101218.84;;;18.05;78.35
59043;BME280;44826;51.596;5.624;2022-08-19T00:29:19;101223.44;;;18.01;78.08
59043;BME280;44826;51.596;5.624;2022-08-19T00:31:46;101231.34;;;18.01;78.32
59043;BME280;44826;51.596;5.624;2022-08-19T00:34:13;101229.63;;;18.00;78.71
59043;BME280;44826;51.596;5.624;2022-08-19T00:36:39;101230.56;;;17.99;78.49
59043;BME280;44826;51.596;5.624;2022-08-19T00:39:04;101235.00;;;17.97;78.08
59043;BME280;44826;51.596;5.624;2022-08-19T00:41:30;101228.97;;;17.95;79.04
59043;BME280;44826;51.596;5.624;2022-08-19T00:44:03;101229.84;;;17.96;79.25
59043;BME280;44826;51.596;5.624;2022-08-19T00:46:29;101228.97;;;17.95;78.96
59043;BME280;44826;51.596;5.624;2022-08-19T00:48:56;101221.03;;;17.97;78.54
59043;BME280;44826;51.596;5.624;2022-08-19T00:51:24;101230.69;;;17.96;78.34
59043;BME280;44826;51.596;5.624;2022-08-19T00:53:52;101230.88;;;17.93;79.66
59043;BME280;44826;51.596;5.624;2022-08-19T00:56:17;101222.88;;;17.95;79.52
59043;BME280;44826;51.596;5.624;2022-08-19T00:58:43;101224.56;;;17.96;80.27
59043;BME280;44826;51.596;5.624;2022-08-19T01:01:09;101221.94;;;17.96;80.83
59043;BME280;44826;51.596;5.624;2022-08-19T01:03:34;101226.34;;;17.95;80.88
59043;BME280;44826;51.596;5.624;2022-08-19T01:05:59;101222.88;;;17.95;80.50
59043;BME280;44826;51.596;5.624;2022-08-19T01:08:25;101227.34;;;17.93;80.76
59043;BME280;44826;51.596;5.624;2022-08-19T01:10:56;101226.69;;;17.89;79.92
59043;BME280;44826;51.596;5.624;2022-08-19T01:13:27;101218.94;;;17.86;79.41
59043;BME280;44826;51.596;5.624;2022-08-19T01:16:00;101225.13;;;17.85;79.51
59043;BME280;44826;51.596;5.624;2022-08-19T01:18:26;101225.22;;;17.83;79.62
59043;BME280;44826;51.596;5.624;2022-08-19T01:20:54;101228.81;;;17.81;78.91
59043;BME280;44826;51.596;5.624;2022-08-19T01:23:21;101224.63;;;17.77;78.34
59043;BME280;44826;51.596;5.624;2022-08-19T01:26:07;101223.09;;;17.72;78.50
59043;BME280;44826;51.596;5.624;2022-08-19T01:28:32;101231.22;;;17.68;78.88
59043;BME280;44826;51.596;5.624;2022-08-19T01:30:57;101227.06;;;17.64;78.46
59043;BME280;44826;51.596;5.624;2022-08-19T01:33:22;101226.31;;;17.60;78.30
59043;BME280;44826;51.596;5.624;2022-08-19T01:35:48;101231.59;;;17.60;79.35
59043;BME280;44826;51.596;5.624;2022-08-19T01:38:26;101233.53;;;17.56;79.08
59043;BME280;44826;51.596;5.624;2022-08-19T01:40:52;101241.66;;;17.52;78.85
59043;BME280;44826;51.596;5.624;2022-08-19T01:43:18;101235.53;;;17.51;79.78
59043;BME280;44826;51.596;5.624;2022-08-19T01:45:44;101236.69;;;17.45;77.89
59043;BME280;44826;51.596;5.624;2022-08-19T01:48:10;101232.50;;;17.41;78.19
59043;BME280;44826;51.596;5.624;2022-08-19T01:50:36;101232.66;;;17.38;78.09
59043;BME280;44826;51.596;5.624;2022-08-19T01:53:04;101234.50;;;17.36;78.17
59043;BME280;44826;51.596;5.624;2022-08-19T01:55:30;101235.56;;;17.32;78.43
59043;BME280;44826;51.596;5.624;2022-08-19T01:57:58;101239.34;;;17.26;78.34
59043;BME280;44826;51.596;5.624;2022-08-19T02:00:26;101242.19;;;17.22;78.88
59043;BME280;44826;51.596;5.624;2022-08-19T02:02:52;101244.09;;;17.18;78.45
59043;BME280;44826;51.596;5.624;2022-08-19T02:05:18;101246.91;;;17.15;78.51
59043;BME280;44826;51.596;5.624;2022-08-19T02:07:44;101252.22;;;17.13;79.17
59043;BME280;44826;51.596;5.624;2022-08-19T02:10:13;101251.50;;;17.10;79.33
59043;BME280;44826;51.596;5.624;2022-08-19T02:12:39;101258.63;;;17.08;79.52
59043;BME280;44826;51.596;5.624;2022-08-19T02:15:05;101257.81;;;17.06;79.57
59043;BME280;44826;51.596;5.624;2022-08-19T02:17:31;101256.13;;;17.05;79.78
59043;BME280;44826;51.596;5.624;2022-08-19T02:19:57;101256.22;;;17.03;79.92
59043;BME280;44826;51.596;5.624;2022-08-19T02:22:23;101256.13;;;17.05;79.96
59043;BME280;44826;51.596;5.624;2022-08-19T02:24:51;101242.16;;;17.04;80.05
59043;BME280;44826;51.596;5.624;2022-08-19T02:27:16;101244.00;;;17.02;80.10
59043;BME280;44826;51.596;5.624;2022-08-19T02:29:42;101244.00;;;17.02;80.13
59043;BME280;44826;51.596;5.624;2022-08-19T02:32:07;101250.16;;;17.01;79.86
59043;BME280;44826;51.596;5.624;2022-08-19T02:34:33;101246.75;;;16.99;79.81
59043;BME280;44826;51.596;5.624;2022-08-19T02:36:59;101254.72;;;16.97;80.09
59043;BME280;44826;51.596;5.624;2022-08-19T02:39:24;101253.84;;;16.97;79.83
59043;BME280;44826;51.596;5.624;2022-08-19T02:41:49;101258.38;;;16.93;78.32
59043;BME280;44826;51.596;5.624;2022-08-19T02:44:16;101253.25;;;16.90;77.99
59043;BME280;44826;51.596;5.624;2022-08-19T02:46:41;101255.97;;;16.89;78.34
59043;BME280;44826;51.596;5.624;2022-08-19T02:49:07;101255.31;;;16.83;78.12
59043;BME280;44826;51.596;5.624;2022-08-19T02:51:36;101253.75;;;16.79;78.46
59043;BME280;44826;51.596;5.624;2022-08-19T02:54:03;101266.09;;;16.77;78.37
59043;BME280;44826;51.596;5.624;2022-08-19T02:56:29;101267.16;;;16.73;78.28
59043;BME280;44826;51.596;5.624;2022-08-19T02:58:56;101268.09;;;16.72;78.68
59043;BME280;44826;51.596;5.624;2022-08-19T03:01:26;101262.97;;;16.69;79.17
59043;BME280;44826;51.596;5.624;2022-08-19T03:03:52;101259.56;;;16.67;79.06
59043;BME280;44826;51.596;5.624;2022-08-19T03:06:18;101257.97;;;16.63;79.19
59043;BME280;44826;51.596;5.624;2022-08-19T03:08:45;101261.66;;;16.59;79.22
59043;BME280;44826;51.596;5.624;2022-08-19T03:11:18;101263.53;;;16.57;79.21
59043;BME280;44826;51.596;5.624;2022-08-19T03:13:45;101263.53;;;16.57;79.98
59043;BME280;44826;51.596;5.624;2022-08-19T03:16:11;101266.28;;;16.53;79.75
59043;BME280;44826;51.596;5.624;2022-08-19T03:18:37;101268.00;;;16.54;80.12
59043;BME280;44826;51.596;5.624;2022-08-19T03:21:02;101272.59;;;16.49;79.36
59043;BME280;44826;51.596;5.624;2022-08-19T03:23:28;101263.91;;;16.47;79.83
59043;BME280;44826;51.596;5.624;2022-08-19T03:25:53;101267.47;;;16.46;79.71
59043;BME280;44826;51.596;5.624;2022-08-19T03:28:19;101261.38;;;16.46;80.17
59043;BME280;44826;51.596;5.624;2022-08-19T03:31:05;101262.19;;;16.46;79.55
59043;BME280;44826;51.596;5.624;2022-08-19T03:33:32;101267.59;;;16.43;80.03
59043;BME280;44826;51.596;5.624;2022-08-19T03:36:10;101271.13;;;16.42;79.99
59043;BME280;44826;51.596;5.624;2022-08-19T03:38:37;101268.59;;;16.41;80.05
59043;BME280;44826;51.596;5.624;2022-08-19T03:41:05;101272.97;;;16.40;80.32
59043;BME280;44826;51.596;5.624;2022-08-19T03:43:33;101271.41;;;16.36;80.16
59043;BME280;44826;51.596;5.624;2022-08-19T03:46:05;101258.34;;;16.34;80.39
59043;BME280;44826;51.596;5.624;2022-08-19T03:48:32;101263.66;;;16.33;80.60
59043;BME280;44826;51.596;5.624;2022-08-19T03:50:58;101264.72;;;16.29;80.71
59043;BME280;44826;51.596;5.624;2022-08-19T03:53:24;101256.00;;;16.28;80.12
59043;BME280;44826;51.596;5.624;2022-08-19T03:55:51;101255.22;;;16.26;79.65
59043;BME280;44826;51.596;5.624;2022-08-19T03:58:16;101250.00;;;16.24;79.87
59043;BME280;44826;51.596;5.624;2022-08-19T04:00:42;101257.03;;;16.24;79.98
59043;BME280;44826;51.596;5.624;2022-08-19T04:03:08;101257.94;;;16.23;79.67
59043;BME280;44826;51.596;5.624;2022-08-19T04:05:34;101260.78;;;16.18;79.13
59043;BME280;44826;51.596;5.624;2022-08-19T04:07:59;101272.31;;;16.14;79.70
59043;BME280;44826;51.596;5.624;2022-08-19T04:10:26;101271.50;;;16.14;80.61
59043;BME280;44826;51.596;5.624;2022-08-19T04:12:51;101268.91;;;16.12;80.92
59043;BME280;44826;51.596;5.624;2022-08-19T04:15:16;101267.19;;;16.11;80.69
59043;BME280;44826;51.596;5.624;2022-08-19T04:17:42;101256.69;;;16.11;80.33
59043;BME280;44826;51.596;5.624;2022-08-19T04:20:07;101260.25;;;16.10;79.94
59043;BME280;44826;51.596;5.624;2022-08-19T04:22:33;101259.44;;;16.08;80.34
59043;BME280;44826;51.596;5.624;2022-08-19T04:24:58;101256.09;;;16.04;80.20
59043;BME280;44826;51.596;5.624;2022-08-19T04:27:23;101255.31;;;16.02;79.97
59043;BME280;44826;51.596;5.624;2022-08-19T04:29:48;101255.41;;;16.01;79.96
59043;BME280;44826;51.596;5.624;2022-08-19T04:32:14;101245.84;;;15.98;79.15
59043;BME280;44826;51.596;5.624;2022-08-19T04:34:40;101246.06;;;15.93;79.31
59043;BME280;44826;51.596;5.624;2022-08-19T04:37:07;101239.22;;;15.89;79.94
59043;BME280;44826;51.596;5.624;2022-08-19T04:39:37;101252.22;;;15.92;80.26
59043;BME280;44826;51.596;5.624;2022-08-19T04:42:21;101250.66;;;15.88;80.10
59043;BME280;44826;51.596;5.624;2022-08-19T04:45:11;101256.75;;;15.89;80.96
59043;BME280;44826;51.596;5.624;2022-08-19T04:47:38;101252.34;;;15.89;81.29
59043;BME280;44826;51.596;5.624;2022-08-19T04:50:05;101252.34;;;15.89;81.59
59043;BME280;44826;51.596;5.624;2022-08-19T04:52:30;101254.97;;;15.89;80.93
59043;BME280;44826;51.596;5.624;2022-08-19T04:54:57;101254.13;;;15.89;80.96
59043;BME280;44826;51.596;5.624;2022-08-19T04:57:23;101255.91;;;15.88;81.43
59043;BME280;44826;51.596;5.624;2022-08-19T04:59:49;101257.59;;;15.89;81.71
59043;BME280;44826;51.596;5.624;2022-08-19T05:02:18;101260.09;;;15.92;81.43
59043;BME280;44826;51.596;5.624;2022-08-19T05:04:43;101263.59;;;15.93;82.16
59043;BME280;44826;51.596;5.624;2022-08-19T05:07:08;101266.13;;;15.95;82.91
59043;BME280;44826;51.596;5.624;2022-08-19T05:09:35;101269.56;;;15.97;83.44
59043;BME280;44826;51.596;5.624;2022-08-19T05:12:00;101273.75;;;16.01;84.25
59043;BME280;44826;51.596;5.624;2022-08-19T05:14:25;101264.84;;;16.05;84.33
59043;BME280;44826;51.596;5.624;2022-08-19T05:16:51;101276.00;;;16.10;84.74
59043;BME280;44826;51.596;5.624;2022-08-19T05:19:16;101276.75;;;16.14;84.99
59043;BME280;44826;51.596;5.624;2022-08-19T05:22:00;101280.88;;;16.19;84.76
59043;BME280;44826;51.596;5.624;2022-08-19T05:24:44;101278.13;;;16.22;85.18
59043;BME280;44826;51.596;5.624;2022-08-19T05:27:09;101279.66;;;16.27;85.17
59043;BME280;44826;51.596;5.624;2022-08-19T05:29:35;101277.78;;;16.30;85.59
59043;BME280;44826;51.596;5.624;2022-08-19T05:32:02;101283.69;;;16.35;85.69
59043;BME280;44826;51.596;5.624;2022-08-19T05:34:29;101291.31;;;16.42;85.57
59043;BME280;44826;51.596;5.624;2022-08-19T05:36:57;101294.63;;;16.45;85.65
59043;BME280;44826;51.596;5.624;2022-08-19T05:39:26;101303.97;;;16.52;85.41
59043;BME280;44826;51.596;5.624;2022-08-19T05:41:55;101297.66;;;16.57;85.50
59043;BME280;44826;51.596;5.624;2022-08-19T05:44:25;101300.13;;;16.60;85.38
59043;BME280;44826;51.596;5.624;2022-08-19T05:46:51;101306.97;;;16.64;85.29
59043;BME280;44826;51.596;5.624;2022-08-19T05:49:19;101310.38;;;16.66;85.17
59043;BME280;44826;51.596;5.624;2022-08-19T05:51:45;101308.56;;;16.68;84.99
59043;BME280;44826;51.596;5.624;2022-08-19T05:54:10;101304.09;;;16.70;84.88
59043;BME280;44826;51.596;5.624;2022-08-19T05:56:39;101305.72;;;16.73;84.75
59043;BME280;44826;51.596;5.624;2022-08-19T05:59:07;101303.78;;;16.76;85.38
59043;BME280;44826;51.596;5.624;2022-08-19T06:01:37;101299.28;;;16.80;85.04
59043;BME280;44826;51.596;5.624;2022-08-19T06:04:03;101299.97;;;16.83;85.37
59043;BME280;44826;51.596;5.624;2022-08-19T06:06:28;101293.69;;;16.88;85.14
59043;BME280;44826;51.596;5.624;2022-08-19T06:08:54;101305.72;;;16.92;85.22
59043;BME280;44826;51.596;5.624;2022-08-19T06:11:23;101291.56;;;16.96;85.00
59043;BME280;44826;51.596;5.624;2022-08-19T06:13:51;101295.78;;;17.00;84.82
59043;BME280;44826;51.596;5.624;2022-08-19T06:16:18;101297.34;;;17.04;84.76
59043;BME280;44826;51.596;5.624;2022-08-19T06:18:46;101296.25;;;17.08;84.63
59043;BME280;44826;51.596;5.624;2022-08-19T06:21:11;101303.09;;;17.12;84.64
59043;BME280;44826;51.596;5.624;2022-08-19T06:23:36;101301.19;;;17.16;84.34
59043;BME280;44826;51.596;5.624;2022-08-19T06:26:01;101302.69;;;17.22;84.10
59043;BME280;44826;51.596;5.624;2022-08-19T06:28:27;101302.53;;;17.25;84.05
59043;BME280;44826;51.596;5.624;2022-08-19T06:30:52;101298.81;;;17.29;83.80
59043;BME280;44826;51.596;5.624;2022-08-19T06:33:17;101296.97;;;17.31;83.40
59043;BME280;44826;51.596;5.624;2022-08-19T06:35:43;101296.97;;;17.31;83.32
59043;BME280;44826;51.596;5.624;2022-08-19T06:38:08;101299.47;;;17.34;83.42
59043;BME280;44826;51.596;5.624;2022-08-19T06:40:35;101294.91;;;17.38;84.27
59043;BME280;44826;51.596;5.624;2022-08-19T06:43:00;101292.06;;;17.42;84.08
59043;BME280;44826;51.596;5.624;2022-08-19T06:45:27;101289.22;;;17.47;84.06
59043;BME280;44826;51.596;5.624;2022-08-19T06:47:52;101293.34;;;17.53;83.97
59043;BME280;44826;51.596;5.624;2022-08-19T06:50:22;101289.78;;;17.54;83.39
59043;BME280;44826;51.596;5.624;2022-08-19T06:52:47;101299.28;;;17.56;83.82
59043;BME280;44826;51.596;5.624;2022-08-19T06:55:12;101294.72;;;17.60;83.61
59043;BME280;44826;51.596;5.624;2022-08-19T06:57:38;101294.59;;;17.63;83.09
59043;BME280;44826;51.596;5.624;2022-08-19T07:00:05;101296.06;;;17.69;83.44
59043;BME280;44826;51.596;5.624;2022-08-19T07:02:31;101297.63;;;17.73;83.76
59043;BME280;44826;51.596;5.624;2022-08-19T07:04:57;101297.34;;;17.79;83.44
59043;BME280;44826;51.596;5.624;2022-08-19T07:07:23;101301.44;;;17.85;83.18
59043;BME280;44826;51.596;5.624;2022-08-19T07:09:50;101303.00;;;17.89;83.27
59043;BME280;44826;51.596;5.624;2022-08-19T07:12:15;101296.72;;;17.92;82.71
59043;BME280;44826;51.596;5.624;2022-08-19T07:14:41;101299.13;;;17.96;82.89
59043;BME280;44826;51.596;5.624;2022-08-19T07:17:09;101302.41;;;18.01;83.29
59043;BME280;44826;51.596;5.624;2022-08-19T07:19:36;101305.75;;;18.05;82.36
59043;BME280;44826;51.596;5.624;2022-08-19T07:22:04;101314.19;;;18.12;82.78
59043;BME280;44826;51.596;5.624;2022-08-19T07:24:31;101313.88;;;18.18;82.68
59043;BME280;44826;51.596;5.624;2022-08-19T07:26:59;101318.00;;;18.24;82.32
59043;BME280;44826;51.596;5.624;2022-08-19T07:29:26;101318.53;;;18.30;82.24
59043;BME280;44826;51.596;5.624;2022-08-19T07:31:52;101313.09;;;18.33;82.03
59043;BME280;44826;51.596;5.624;2022-08-19T07:34:22;101319.94;;;18.38;81.79
59043;BME280;44826;51.596;5.624;2022-08-19T07:36:48;101312.47;;;18.46;82.45
59043;BME280;44826;51.596;5.624;2022-08-19T07:39:19;101320.84;;;18.54;82.25
59043;BME280;44826;51.596;5.624;2022-08-19T07:41:46;101318.66;;;18.62;82.24
59043;BME280;44826;51.596;5.624;2022-08-19T07:44:12;101322.78;;;18.68;80.90
59043;BME280;44826;51.596;5.624;2022-08-19T07:46:40;101326.88;;;18.74;81.14
59043;BME280;44826;51.596;5.624;2022-08-19T07:49:07;101333.50;;;18.81;80.21
59043;BME280;44826;51.596;5.624;2022-08-19T07:51:34;101330.44;;;18.89;80.75
59043;BME280;44826;51.596;5.624;2022-08-19T07:53:59;101338.00;;;18.96;80.89
59043;BME280;44826;51.596;5.624;2022-08-19T07:56:25;101334.09;;;19.04;80.07
59043;BME280;44826;51.596;5.624;2022-08-19T07:58:52;101335.81;;;19.05;79.74
59043;BME280;44826;51.596;5.624;2022-08-19T08:01:21;101334.78;;;19.07;79.97
59043;BME280;44826;51.596;5.624;2022-08-19T08:03:48;101336.31;;;19.11;79.41
59043;BME280;44826;51.596;5.624;2022-08-19T08:06:40;101334.56;;;19.12;79.38
59043;BME280;44826;51.596;5.624;2022-08-19T08:09:41;101335.13;;;19.17;79.50
59043;BME280;44826;51.596;5.624;2022-08-19T08:12:10;101339.41;;;19.20;79.27
59043;BME280;44826;51.596;5.624;2022-08-19T08:14:40;101341.13;;;19.21;78.79
59043;BME280;44826;51.596;5.624;2022-08-19T08:17:07;101340.00;;;19.25;79.57
59043;BME280;44826;51.596;5.624;2022-08-19T08:19:33;101338.81;;;19.31;79.05
59043;BME280;44826;51.596;5.624;2022-08-19T08:22:00;101347.41;;;19.34;78.10
59043;BME280;44826;51.596;5.624;2022-08-19T08:24:29;101348.25;;;19.35;77.99
59043;BME280;44826;51.596;5.624;2022-08-19T08:26:57;101363.75;;;19.41;78.15
59043;BME280;44826;51.596;5.624;2022-08-19T08:29:22;101361.91;;;19.43;76.75
59043;BME280;44826;51.596;5.624;2022-08-19T08:31:48;101363.59;;;19.44;77.23
59043;BME280;44826;51.596;5.624;2022-08-19T08:34:13;101361.72;;;19.46;77.46
59043;BME280;44826;51.596;5.624;2022-08-19T08:36:41;101364.94;;;19.51;77.94
59043;BME280;44826;51.596;5.624;2022-08-19T08:39:12;101369.03;;;19.57;77.33
59043;BME280;44826;51.596;5.624;2022-08-19T08:41:52;101367.88;;;19.63;76.43
59043;BME280;44826;51.596;5.624;2022-08-19T08:46:59;101372.94;;;19.66;76.10
59043;BME280;44826;51.596;5.624;2022-08-19T08:52:22;101373.97;;;19.79;76.26
59043;BME280;44826;51.596;5.624;2022-08-19T08:54:51;101370.97;;;19.85;76.67
59043;BME280;44826;51.596;5.624;2022-08-19T08:57:43;101369.75;;;19.93;75.73
59043;BME280;44826;51.596;5.624;2022-08-19T09:00:17;101369.56;;;19.96;75.18
59043;BME280;44826;51.596;5.624;2022-08-19T09:02:44;101370.34;;;19.98;74.59
59043;BME280;44826;51.596;5.624;2022-08-19T09:05:10;101377.50;;;19.96;75.11
59043;BME280;44826;51.596;5.624;2022-08-19T09:10:32;101376.13;;;19.89;75.85
59043;BME280;44826;51.596;5.624;2022-08-19T09:15:49;101367.88;;;19.95;74.49
59043;BME280;44826;51.596;5.624;2022-08-19T09:18:17;101382.00;;;19.94;75.05
59043;BME280;44826;51.596;5.624;2022-08-19T09:20:43;101379.59;;;20.05;73.51
59043;BME280;44826;51.596;5.624;2022-08-19T09:23:08;101377.16;;;20.16;73.22
59043;BME280;44826;51.596;5.624;2022-08-19T09:25:35;101375.13;;;20.22;73.35
59043;BME280;44826;51.596;5.624;2022-08-19T09:28:01;101372.47;;;20.22;73.22
59043;BME280;44826;51.596;5.624;2022-08-19T09:30:33;101382.47;;;20.16;72.88
59043;BME280;44826;51.596;5.624;2022-08-19T09:32:58;101371.41;;;20.10;73.15
59043;BME280;44826;51.596;5.624;2022-08-19T09:35:26;101370.19;;;20.15;72.64
59043;BME280;44826;51.596;5.624;2022-08-19T09:37:52;101378.34;;;20.27;72.29
59043;BME280;44826;51.596;5.624;2022-08-19T09:40:19;101374.91;;;20.41;72.09
59043;BME280;44826;51.596;5.624;2022-08-19T09:42:45;101376.53;;;20.58;71.14
59043;BME280;44826;51.596;5.624;2022-08-19T09:45:15;101383.84;;;20.69;71.04
59043;BME280;44826;51.596;5.624;2022-08-19T09:47:41;101377.50;;;20.71;71.44
59043;BME280;44826;51.596;5.624;2022-08-19T09:50:09;101382.78;;;20.71;70.99
59043;BME280;44826;51.596;5.624;2022-08-19T09:52:35;101384.50;;;20.72;70.73
59043;BME280;44826;51.596;5.624;2022-08-19T09:55:06;101382.63;;;20.74;70.49
59043;BME280;44826;51.596;5.624;2022-08-19T09:57:32;101389.34;;;20.80;70.26
59043;BME280;44826;51.596;5.624;2022-08-19T09:59:58;101388.34;;;20.83;70.84
59043;BME280;44826;51.596;5.624;2022-08-19T10:02:23;101393.41;;;20.86;70.21
59043;BME280;44826;51.596;5.624;2022-08-19T10:04:49;101394.94;;;20.90;70.27
59043;BME280;44826;51.596;5.624;2022-08-19T10:07:33;101399.09;;;20.94;70.64
59043;BME280;44826;51.596;5.624;2022-08-19T10:10:00;101400.81;;;20.95;69.72
59043;BME280;44826;51.596;5.624;2022-08-19T10:12:26;101395.34;;;20.98;70.02
59043;BME280;44826;51.596;5.624;2022-08-19T10:14:51;101403.81;;;21.03;69.85
59043;BME280;44826;51.596;5.624;2022-08-19T10:17:18;101401.94;;;21.05;69.56
59043;BME280;44826;51.596;5.624;2022-08-19T10:19:43;101397.22;;;21.11;68.67
59043;BME280;44826;51.596;5.624;2022-08-19T10:22:09;101392.50;;;21.16;69.20
59043;BME280;44826;51.596;5.624;2022-08-19T10:24:39;101393.81;;;21.23;69.96
59043;BME280;44826;51.596;5.624;2022-08-19T10:27:05;101391.16;;;21.23;68.47
59043;BME280;44826;51.596;5.624;2022-08-19T10:29:32;101395.31;;;21.27;68.44
59043;BME280;44826;51.596;5.624;2022-08-19T10:32:00;101386.06;;;21.34;68.12
59043;BME280;44826;51.596;5.624;2022-08-19T10:34:28;101396.25;;;21.41;67.99
59043;BME280;44826;51.596;5.624;2022-08-19T10:36:53;101393.59;;;21.41;68.28
59043;BME280;44826;51.596;5.624;2022-08-19T10:39:19;101390.38;;;21.35;67.66
59043;BME280;44826;51.596;5.624;2022-08-19T10:41:44;101397.69;;;21.32;68.02
59043;BME280;44826;51.596;5.624;2022-08-19T10:44:11;101395.13;;;21.30;68.36
59043;BME280;44826;51.596;5.624;2022-08-19T10:46:40;101395.13;;;21.30;68.50
59043;BME280;44826;51.596;5.624;2022-08-19T10:49:08;101388.78;;;21.33;68.24
59043;BME280;44826;51.596;5.624;2022-08-19T10:51:34;101385.97;;;21.36;67.54
59043;BME280;44826;51.596;5.624;2022-08-19T10:54:18;101389.06;;;21.43;67.49
59043;BME280;44826;51.596;5.624;2022-08-19T10:56:43;101378.84;;;21.51;67.77
59043;BME280;44826;51.596;5.624;2022-08-19T10:59:24;101382.97;;;21.55;65.48
59043;BME280;44826;51.596;5.624;2022-08-19T11:01:53;101383.59;;;21.60;65.16
59043;BME280;44826;51.596;5.624;2022-08-19T11:04:19;101383.28;;;21.65;65.62
59043;BME280;44826;51.596;5.624;2022-08-19T11:06:47;101378.34;;;21.73;65.74
59043;BME280;44826;51.596;5.624;2022-08-19T11:09:18;101373.81;;;21.75;66.47
59043;BME280;44826;51.596;5.624;2022-08-19T11:11:44;101382.50;;;21.77;65.40
59043;BME280;44826;51.596;5.624;2022-08-19T11:14:11;101380.59;;;21.79;65.33
59043;BME280;44826;51.596;5.624;2022-08-19T11:16:38;101379.38;;;21.85;65.47
59043;BME280;44826;51.596;5.624;2022-08-19T11:19:04;101372.81;;;21.91;65.65
59043;BME280;44826;51.596;5.624;2022-08-19T11:21:33;101384.03;;;21.94;65.95
59043;BME280;44826;51.596;5.624;2022-08-19T11:24:01;101378.09;;;21.91;64.85
59043;BME280;44826;51.596;5.624;2022-08-19T11:26:29;101385.09;;;21.92;66.02
59043;BME280;44826;51.596;5.624;2022-08-19T11:28:56;101380.06;;;22.02;65.64
59043;BME280;44826;51.596;5.624;2022-08-19T11:31:25;101395.13;;;22.14;64.32
59043;BME280;44826;51.596;5.624;2022-08-19T11:33:51;101378.38;;;22.13;65.65
59043;BME280;44826;51.596;5.624;2022-08-19T11:36:18;101369.59;;;22.13;64.68
59043;BME280;44826;51.596;5.624;2022-08-19T11:38:46;101366.75;;;22.16;64.62
59043;BME280;44826;51.596;5.624;2022-08-19T11:41:14;101371.53;;;22.24;64.00
59043;BME280;44826;51.596;5.624;2022-08-19T11:43:40;101364.97;;;22.29;62.94
59043;BME280;44826;51.596;5.624;2022-08-19T11:46:07;101368.91;;;22.37;63.57
59043;BME280;44826;51.596;5.624;2022-08-19T11:48:33;101371.25;;;22.41;63.13
59043;BME280;44826;51.596;5.624;2022-08-19T11:50:59;101370.00;;;22.47;63.22
59043;BME280;44826;51.596;5.624;2022-08-19T11:53:24;101369.59;;;22.53;63.35
59043;BME280;44826;51.596;5.624;2022-08-19T11:55:53;101369.16;;;22.59;62.87
59043;BME280;44826;51.596;5.624;2022-08-19T11:58:21;101380.94;;;22.68;64.25
59043;BME280;44826;51.596;5.624;2022-08-19T12:00:46;101366.72;;;22.69;61.97
59043;BME280;44826;51.596;5.624;2022-08-19T12:03:12;101369.78;;;22.76;61.52
59043;BME280;44826;51.596;5.624;2022-08-19T12:05:39;101369.25;;;22.84;61.79
59043;BME280;44826;51.596;5.624;2022-08-19T12:08:05;101372.34;;;22.91;60.88
59043;BME280;44826;51.596;5.624;2022-08-19T12:10:30;101377.44;;;22.94;61.23
59043;BME280;44826;51.596;5.624;2022-08-19T12:12:56;101378.06;;;22.97;60.65
59043;BME280;44826;51.596;5.624;2022-08-19T12:15:21;101380.19;;;23.05;60.55
59043;BME280;44826;51.596;5.624;2022-08-19T12:17:46;101374.44;;;23.11;60.69
59043;BME280;44826;51.596;5.624;2022-08-19T12:20:12;101377.41;;;23.19;60.09
59043;BME280;44826;51.596;5.624;2022-08-19T12:22:41;101375.28;;;23.25;59.66
59043;BME280;44826;51.596;5.624;2022-08-19T12:25:07;101371.38;;;23.30;60.25
59043;BME280;44826;51.596;5.624;2022-08-19T12:27:33;101367.66;;;23.33;59.48
59043;BME280;44826;51.596;5.624;2022-08-19T12:29:58;101365.94;;;23.32;59.26
59043;BME280;44826;51.596;5.624;2022-08-19T12:32:25;101363.50;;;23.29;59.83
59043;BME280;44826;51.596;5.624;2022-08-19T12:34:51;101360.84;;;23.29;59.77
59043;BME280;44826;51.596;5.624;2022-08-19T12:37:16;101360.75;;;23.30;59.67
59043;BME280;44826;51.596;5.624;2022-08-19T12:39:42;101349.06;;;23.33;58.59
59043;BME280;44826;51.596;5.624;2022-08-19T12:42:11;101353.06;;;23.39;59.46
59043;BME280;44826;51.596;5.624;2022-08-19T12:44:39;101344.97;;;23.40;58.85
59043;BME280;44826;51.596;5.624;2022-08-19T12:47:05;101344.03;;;23.41;59.43
59043;BME280;44826;51.596;5.624;2022-08-19T12:49:32;101349.66;;;23.49;59.22
59043;BME280;44826;51.596;5.624;2022-08-19T12:52:03;101345.59;;;23.57;58.83
59043;BME280;44826;51.596;5.624;2022-08-19T12:54:29;101351.63;;;23.59;58.91
59043;BME280;44826;51.596;5.624;2022-08-19T12:56:56;101346.09;;;23.62;58.09
59043;BME280;44826;51.596;5.624;2022-08-19T12:59:21;101347.69;;;23.64;57.81
59043;BME280;44826;51.596;5.624;2022-08-19T13:01:47;101336.94;;;23.66;57.90